createdAt,value
2023-01-15T00:02:54.015Z,11.05
2023-01-15T00:06:56.127Z,10.77
2023-01-15T00:10:58.135Z,14.20
2023-01-15T00:15:00.180Z,14.88
2023-01-15T00:19:05.129Z,15.32
2023-01-15T00:23:27.137Z,14.73
2023-01-15T00:27:41.481Z,16.67
2023-01-15T00:35:46.685Z,13.48
2023-01-15T00:39:48.992Z,13.68
2023-01-15T00:43:51.154Z,14.35
2023-01-15T00:47:53.316Z,15.85
2023-01-15T00:51:56.202Z,16.30
2023-01-15T00:55:58.445Z,15.48
2023-01-15T01:00:00.735Z,16.95
2023-01-15T01:04:02.946Z,13.35
2023-01-15T01:08:05.723Z,15.05
2023-01-15T01:12:08.507Z,15.40
2023-01-15T01:16:32.000Z,13.70
2023-01-15T01:20:34.619Z,14.63
2023-01-15T01:24:36.722Z,18.27
2023-01-15T01:28:38.802Z,16.17
2023-01-15T01:32:45.545Z,16.38
2023-01-15T01:36:47.991Z,14.68
2023-01-15T01:40:50.007Z,12.93
2023-01-15T01:44:52.782Z,14.45
2023-01-15T01:49:02.951Z,14.02
2023-01-15T01:53:14.839Z,14.07
2023-01-15T01:57:20.070Z,12.68
2023-01-15T02:01:25.762Z,12.13
2023-01-15T02:05:35.764Z,10.95
2023-01-15T02:09:39.285Z,9.70
2023-01-15T02:13:53.203Z,10.40
2023-01-15T02:18:04.763Z,11.48
2023-01-15T02:22:16.166Z,11.48
2023-01-15T02:26:49.015Z,10.98
2023-01-15T02:31:18.076Z,11.90
2023-01-15T02:35:37.083Z,13.85
2023-01-15T02:39:42.761Z,11.30
2023-01-15T02:43:48.768Z,13.13
2023-01-15T02:47:54.531Z,10.75
2023-01-15T02:52:06.341Z,9.23
2023-01-15T02:56:18.099Z,9.38
2023-01-15T03:00:30.079Z,9.45
2023-01-15T03:04:51.578Z,10.27
2023-01-15T03:08:56.639Z,10.55
2023-01-15T03:13:02.685Z,8.35
2023-01-15T03:17:56.632Z,8.88
2023-01-15T03:22:17.156Z,8.43
2023-01-15T03:26:19.392Z,8.35
2023-01-15T03:30:22.942Z,9.23
2023-01-15T03:34:50.465Z,10.32
2023-01-15T03:38:55.357Z,9.18
2023-01-15T03:43:40.947Z,9.38
2023-01-15T03:48:03.115Z,9.50
2023-01-15T03:52:10.593Z,10.05
2023-01-15T03:56:31.418Z,9.68
2023-01-15T04:00:39.388Z,10.60
2023-01-15T04:04:44.377Z,10.10
2023-01-15T04:08:48.052Z,9.68
2023-01-15T04:12:51.721Z,10.38
2023-01-15T04:16:55.173Z,9.45
2023-01-15T04:20:59.640Z,9.55
2023-01-15T04:25:04.495Z,11.40
2023-01-15T04:29:06.847Z,9.48
2023-01-15T04:33:09.298Z,11.00
2023-01-15T04:37:11.487Z,10.20
2023-01-15T04:41:31.892Z,10.48
2023-01-15T04:45:34.018Z,10.60
2023-01-15T04:49:36.264Z,11.75
2023-01-15T04:53:38.300Z,11.55
2023-01-15T04:57:40.370Z,11.30
2023-01-15T05:01:51.335Z,10.70
2023-01-15T05:06:03.717Z,15.27
2023-01-15T05:10:06.735Z,14.75
2023-01-15T05:14:09.656Z,15.02
2023-01-15T05:18:15.117Z,13.48
2023-01-15T05:22:17.604Z,13.73
2023-01-15T05:26:21.498Z,12.93
2023-01-15T05:30:23.615Z,13.43
2023-01-15T05:34:26.068Z,12.70
2023-01-15T05:38:28.337Z,12.00
2023-01-15T05:42:30.417Z,12.20
2023-01-15T05:46:34.634Z,10.93
2023-01-15T05:50:37.109Z,11.77
2023-01-15T05:54:39.266Z,12.55
2023-01-15T05:58:41.308Z,11.25
2023-01-15T06:02:43.521Z,12.68
2023-01-15T06:06:45.579Z,13.35
2023-01-15T06:10:48.243Z,14.48
2023-01-15T06:19:36.924Z,12.53
2023-01-15T06:23:40.109Z,10.55
2023-01-15T06:27:44.604Z,10.25
2023-01-15T06:35:49.546Z,10.40
2023-01-15T06:39:51.744Z,11.70
2023-01-15T06:44:12.321Z,13.52
2023-01-15T06:48:14.423Z,13.07
2023-01-15T06:52:16.483Z,14.18
2023-01-15T06:56:18.609Z,16.60
2023-01-15T07:00:24.029Z,16.20
2023-01-15T07:04:29.181Z,15.57
2023-01-15T07:08:31.928Z,15.13
2023-01-15T07:12:35.998Z,15.32
2023-01-15T07:16:38.064Z,16.00
2023-01-15T07:20:40.701Z,17.92
2023-01-15T07:24:42.855Z,18.00
2023-01-15T07:28:45.496Z,16.92
2023-01-15T07:32:47.945Z,17.73
2023-01-15T07:36:49.987Z,19.48
2023-01-15T07:41:12.174Z,20.10
2023-01-15T07:45:32.968Z,20.08
2023-01-15T07:49:48.772Z,18.80
2023-01-15T07:53:51.116Z,25.20
2023-01-15T07:57:53.981Z,24.75
2023-01-15T08:01:56.168Z,24.85
2023-01-15T08:05:58.457Z,23.70
2023-01-15T08:10:00.539Z,23.20
2023-01-15T08:14:21.651Z,22.60
2023-01-15T08:18:23.761Z,20.67
2023-01-15T08:22:25.810Z,19.95
2023-01-15T08:26:27.954Z,19.90
2023-01-15T08:30:30.190Z,20.60
2023-01-15T08:34:32.507Z,20.67
2023-01-15T08:38:34.749Z,17.92
2023-01-15T08:42:37.047Z,18.40
2023-01-15T08:46:39.123Z,17.25
2023-01-15T08:50:41.221Z,30.52
2023-01-15T08:54:43.749Z,22.40
2023-01-15T08:58:47.465Z,20.55
2023-01-15T09:02:50.336Z,22.05
2023-01-15T09:06:53.378Z,21.17
2023-01-15T09:11:00.098Z,22.15
2023-01-15T09:15:02.936Z,18.52
2023-01-15T09:19:07.504Z,17.83
2023-01-15T09:23:09.540Z,17.67
2023-01-15T09:27:12.689Z,17.92
2023-01-15T09:31:14.866Z,17.15
2023-01-15T09:35:17.197Z,18.33
2023-01-15T09:39:19.357Z,18.08
2023-01-15T09:43:30.903Z,13.55
2023-01-15T09:48:08.400Z,13.15
2023-01-15T09:52:27.858Z,13.00
2023-01-15T09:56:33.488Z,11.70
2023-01-15T10:00:40.824Z,9.77
2023-01-15T10:04:48.415Z,10.27
2023-01-15T10:08:51.865Z,10.43
2023-01-15T10:13:01.438Z,9.57
2023-01-15T10:17:03.552Z,10.05
2023-01-15T10:21:32.293Z,8.93
2023-01-15T10:25:58.545Z,11.52
2023-01-15T10:30:17.847Z,8.93
2023-01-15T10:34:44.337Z,9.45
2023-01-15T10:39:03.697Z,11.73
2023-01-15T10:43:19.464Z,10.60
2023-01-15T10:47:35.412Z,10.68
2023-01-15T10:51:43.009Z,10.40
2023-01-15T10:55:53.101Z,9.50
2023-01-15T11:00:00.720Z,9.02
2023-01-15T11:04:03.046Z,10.60
2023-01-15T11:08:45.301Z,10.82
2023-01-15T11:12:49.852Z,11.20
2023-01-15T11:17:07.494Z,11.05
2023-01-15T11:21:19.603Z,8.98
2023-01-15T11:25:30.567Z,9.07
2023-01-15T11:29:39.386Z,8.77
2023-01-15T11:34:01.730Z,10.40
2023-01-15T11:38:08.215Z,11.18
2023-01-15T11:42:35.289Z,9.20
2023-01-15T11:46:55.956Z,10.52
2023-01-15T11:51:17.741Z,11.75
2023-01-15T11:55:22.593Z,9.73
2023-01-15T11:59:25.767Z,8.70
2023-01-15T12:03:30.567Z,16.30
2023-01-15T12:07:32.941Z,8.40
2023-01-15T12:11:51.484Z,10.23
2023-01-15T12:16:09.868Z,7.93
2023-01-15T12:20:20.951Z,8.07
2023-01-15T12:24:41.873Z,9.02
2023-01-15T12:29:07.200Z,8.48
2023-01-15T12:33:30.915Z,7.18
2023-01-15T12:37:46.705Z,8.30
2023-01-15T12:42:14.227Z,7.82
2023-01-15T12:46:19.909Z,8.00
2023-01-15T12:50:45.057Z,7.72
2023-01-15T12:55:02.480Z,7.03
2023-01-15T12:59:30.278Z,14.68
2023-01-15T13:03:47.910Z,10.82
2023-01-15T13:07:53.041Z,10.52
2023-01-15T13:11:55.408Z,8.95
2023-01-15T13:16:29.815Z,8.55
2023-01-15T13:20:37.919Z,8.85
2023-01-15T13:24:55.885Z,8.30
2023-01-15T13:29:10.190Z,7.47
2023-01-15T13:33:44.192Z,6.82
2023-01-15T13:37:54.199Z,7.32
2023-01-15T13:42:23.039Z,7.50
2023-01-15T13:46:25.186Z,6.53
2023-01-15T13:50:33.101Z,7.65
2023-01-15T13:54:41.698Z,6.15
2023-01-15T13:58:56.230Z,7.25
2023-01-15T14:03:21.097Z,6.75
2023-01-15T14:07:35.443Z,6.35
2023-01-15T14:11:45.388Z,4.65
2023-01-15T14:16:12.418Z,2.42
2023-01-15T14:20:35.921Z,2.38
2023-01-15T14:24:46.435Z,1.95
2023-01-15T14:29:16.121Z,2.33
2023-01-15T14:33:56.161Z,2.22
2023-01-15T14:38:04.898Z,1.77
2023-01-15T14:42:54.472Z,2.10
2023-01-15T14:47:02.612Z,2.70
2023-01-15T14:51:14.613Z,2.28
2023-01-15T14:55:18.362Z,2.22
2023-01-15T14:59:24.509Z,2.88
2023-01-15T15:03:35.570Z,3.10
2023-01-15T15:07:43.889Z,2.78
2023-01-15T15:12:07.880Z,3.53
2023-01-15T15:16:19.899Z,2.63
2023-01-15T15:20:31.693Z,3.88
2023-01-15T15:24:42.382Z,5.57
2023-01-15T15:28:56.503Z,4.55
2023-01-15T15:33:00.267Z,3.42
2023-01-15T15:37:13.845Z,3.13
2023-01-15T15:41:16.042Z,3.67
2023-01-15T15:45:44.026Z,4.65
2023-01-15T15:49:46.181Z,7.30
2023-01-15T15:53:48.339Z,8.05
2023-01-15T15:57:56.460Z,13.57
2023-01-15T16:02:07.562Z,11.90
2023-01-15T16:06:28.545Z,7.55
2023-01-15T16:10:38.960Z,18.23
2023-01-15T16:14:43.356Z,7.43
2023-01-15T16:19:07.841Z,7.57
2023-01-15T16:23:24.860Z,6.88
2023-01-15T16:27:33.657Z,5.55
2023-01-15T16:31:37.253Z,4.57
2023-01-15T16:35:39.682Z,4.33
2023-01-15T16:39:46.605Z,4.57
2023-01-15T16:43:58.764Z,4.20
2023-01-15T16:48:08.217Z,3.95
2023-01-15T16:52:50.189Z,4.93
2023-01-15T16:56:54.685Z,4.43
2023-01-15T17:04:59.485Z,5.43
2023-01-15T17:09:01.613Z,4.35
2023-01-15T17:13:03.845Z,5.10
2023-01-15T17:17:18.760Z,2.65
2023-01-15T17:21:27.607Z,2.25
2023-01-15T17:25:35.249Z,2.30
2023-01-15T17:29:37.339Z,2.25
2023-01-15T17:33:39.412Z,2.10
2023-01-15T17:37:41.517Z,2.47
2023-01-15T17:41:44.027Z,2.28
2023-01-15T17:45:48.941Z,2.33
2023-01-15T17:49:50.992Z,2.50
2023-01-15T17:53:53.321Z,2.83
2023-01-15T17:58:14.208Z,2.35
2023-01-15T18:02:35.431Z,2.55
2023-01-15T18:06:38.207Z,1.70
2023-01-15T18:10:40.444Z,1.25
2023-01-15T18:14:42.485Z,1.88
2023-01-15T18:18:44.819Z,1.80
2023-01-15T18:22:47.015Z,1.20
2023-01-15T18:26:52.010Z,1.33
2023-01-15T18:30:54.173Z,2.00
2023-01-15T18:34:56.685Z,2.30
2023-01-15T18:39:06.434Z,2.00
2023-01-15T18:43:28.058Z,1.13
2023-01-15T18:47:30.145Z,1.63
2023-01-15T18:51:32.554Z,1.48
2023-01-15T18:55:34.817Z,1.30
2023-01-15T18:59:37.075Z,1.80
2023-01-15T19:03:39.359Z,1.70
2023-01-15T19:07:45.250Z,2.05
2023-01-15T19:11:47.868Z,1.20
2023-01-15T19:16:08.666Z,1.23
2023-01-15T19:20:17.266Z,1.83
2023-01-15T19:24:19.259Z,1.50
2023-01-15T19:28:21.939Z,2.25
2023-01-15T19:32:23.940Z,2.22
2023-01-15T19:36:25.959Z,1.33
2023-01-15T19:40:28.780Z,1.45
2023-01-15T19:44:49.605Z,2.10
2023-01-15T19:49:10.391Z,1.48
2023-01-15T19:53:13.721Z,1.83
2023-01-15T19:57:21.547Z,1.90
2023-01-15T20:01:24.039Z,1.50
2023-01-15T20:05:29.274Z,1.50
2023-01-15T20:09:31.550Z,1.50
2023-01-15T20:13:52.444Z,1.38
2023-01-15T20:17:55.920Z,1.63
2023-01-15T20:21:59.164Z,1.50
2023-01-15T20:26:03.747Z,1.75
2023-01-15T20:30:12.940Z,1.60
2023-01-15T20:34:15.063Z,1.90
2023-01-15T20:38:19.305Z,1.35
2023-01-15T20:42:40.402Z,1.38
2023-01-15T20:46:42.750Z,1.13
2023-01-15T20:51:03.296Z,1.45
2023-01-15T20:55:06.149Z,1.08
2023-01-15T20:59:09.795Z,1.30
2023-01-15T21:03:12.591Z,1.15
2023-01-15T21:07:15.201Z,1.48
2023-01-15T21:11:17.420Z,1.77
2023-01-15T21:15:20.860Z,1.45
2023-01-15T21:19:23.606Z,0.93
2023-01-15T21:23:26.056Z,1.27
2023-01-15T21:27:28.215Z,1.42
2023-01-15T21:31:31.131Z,1.38
2023-01-15T21:35:34.496Z,1.30
2023-01-15T21:39:37.967Z,1.55
2023-01-15T21:43:59.701Z,2.00
2023-01-15T21:48:01.875Z,0.93
2023-01-15T21:52:07.482Z,1.40
2023-01-15T21:56:09.645Z,1.75
2023-01-15T22:00:13.215Z,1.17
2023-01-15T22:04:15.362Z,1.37
2023-01-15T22:08:18.052Z,1.25
2023-01-15T22:12:20.533Z,1.17
2023-01-15T22:16:22.649Z,0.90
2023-01-15T22:20:24.823Z,1.40
2023-01-15T22:24:30.865Z,1.10
2023-01-15T22:28:33.000Z,1.50
2023-01-15T22:32:35.198Z,1.00
2023-01-15T22:36:37.386Z,1.30
2023-01-15T22:40:39.532Z,1.00
2023-01-15T22:44:44.168Z,1.10
2023-01-15T22:48:46.433Z,1.15
2023-01-15T22:52:48.452Z,1.00
2023-01-15T22:56:50.548Z,1.30
2023-01-15T23:00:56.369Z,0.98
2023-01-15T23:04:58.519Z,1.15
2023-01-15T23:09:02.408Z,0.80
2023-01-15T23:13:04.568Z,0.77
2023-01-15T23:17:06.796Z,1.15
2023-01-15T23:21:11.187Z,1.10
2023-01-15T23:25:13.197Z,0.95
2023-01-15T23:29:15.215Z,1.13
2023-01-15T23:33:17.376Z,0.90
2023-01-15T23:37:19.672Z,0.77
2023-01-15T23:41:43.744Z,1.08
2023-01-15T23:46:06.430Z,1.20
2023-01-15T23:50:08.964Z,1.45
2023-01-15T23:54:11.898Z,1.08
2023-01-15T23:58:14.330Z,1.52
